Relevés horaires Matro (Suisse)


Relevés horaires à Matro - Jeudi 01 Janv. 2015
Heure UTC1 Température [°C] Vent [km/h] Hum. [%] Pres.4 [hPa] Visi. [Km] Nébu. [octa] Préc.5 [mm] Cond.
2m. Res. Ros. Dir.2 Vit. Moy. Raf.3
23:00 4.6 1.3 -8.1 NNO 14.8 14.8 16.7 39 850(0.0/3h) -- -- -- --
22:00 5.4 2.9 -8.3 NO 11.1 11.1 16.7 36 850(0.1/3h) -- -- -- --
21:00 5.5 3 -7.9 ONO 11.1 24.1 29.6 37 850(0.6/3h) -- -- -- --
20:00 4.9 1.4 -7.8 NO 16.7 -- 27.8 39 791.9(1.2/3h) -- -- -- --
19:00 5.2 0.9 -8.1 NO 24.1 -- 29.6 38 791.7(1.3/3h) -- -- -- --
18:00 4.6 0.5 -8.2 NO 20.4 -- 27.8 39 791.2(1.1/3h) -- -- -- --
17:00 4.8 1.5 -8.2 NO 14.8 -- 22.2 38 790.7(1.0/3h) -- -- -- --
16:00 4.5 0.6 -8.0 NO 18.5 -- 24.1 40 790.4(1.3/3h) -- -- -- --
15:00 3.8 0.6 -7.8 NNO 13.0 -- 18.5 42 790.1(1.0/3h) -- -- -- --
14:00 3.6 0.4 -7.8 NO 13.0 -- 16.7 43 789.7(0.3/3h) -- -- -- --
13:00 3.7 2.4 -7.9 NNO 5.6 -- 18.5 42 789.1(-0.2/3h) -- -- -- --
12:00 3.0 1 -7.8 NO 7.4 -- 44.4 45 789.1(0.3/3h) -- -- -- --
11:00 3.3 -0.3 -7.7 ONO 14.8 -- 25.9 44 789.4(1.2/3h) -- -- -- --
10:00 3.7 -0.1 -7.9 NO 16.7 -- 31.5 42 789.3(1.5/3h) -- -- -- --
09:00 3.3 -1.6 -7.5 NO 24.1 -- 44.4 45 788.8(1.6/3h) -- -- -- --
08:00 2.5 -3 -7.6 NO 27.8 -- 44.4 47 788.2(1.5/3h) -- -- -- --
07:00 1.9 -4 -7.7 NO 29.6 -- 40.7 49 787.8(1.2/3h) -- -- -- --
06:00 0.6 -5.6 -7.8 NO 29.6 -- 40.7 53 787.2(0.5/3h) -- -- -- --
05:00 0.1 -5.2 -8.0 NO 20.4 -- 31.5 54 786.7(-0.2/3h) -- -- -- --
04:00 -0.7 -5.9 -8.4 NO 18.5 -- 33.3 56 786.6(0.0/3h) -- -- -- --
03:00 -1.9 -8.2 -8.9 NO 24.1 -- 40.7 59 786.7(0.3/3h) -- -- -- --
02:00 -2.2 -9.1 -8.7 NNO 27.8 -- 40.7 61 786.9(0.6/3h) -- -- -- --
01:00 -2.1 -8.5 -9.1 NNO 24.1 -- 35.2 59 786.6(0.4/3h) -- -- -- --
00:00 -2.4 -8.9 -9.4 NO 24.1 51.9 75.9 59 850(0.5/3h) -- -- -- --

1 Coordinated Universal Time. Actuellement il est 14:00 locale et 12:00 UTC.

2 Le vent souffle depuis la direction indiquée vers la direction oposée.

3 Les rafales max. sont disponible 40 min après l'heure du relevé.

4 Pour les stations d'altitude (plus de 600m) le géopotentiel du niveau le plus proche de la pression obligatoire est indiqué.

5 Les stations disposant d'un diffuseur peuvent indiquer "trace". Cela signifie que des précipitations ont touchés le sol mais que la quantité est inférieure à 0.1 mm.

Copyright

Les données affichées sur cette page sont la propriété exclusive de Météo Suisse.

Récapitulatif de la journée
Température [°C] Vent [km/h] Ensoleillement4 [h] Precipitations totale5 [mm] Pression [Hpa]
Min1 Max.2 Moy.3 Max. Min Max.
-2.9 4.9 25.5 75.9 7 h 6 min 0 786.6 850.0

1 Température minimale relevée entre 18:00 UTC la veille et 18:00 UTC le jour donné.

2 Température maximale relevée entre 06:00 UTC le jour donné et 06:00 UTC le lendemain.

3 Vent moyen de la journée basé sur les relevés horaires.

4 Ensoleillement en heures relevé entre 06:00 UTC la veille et 06:00 UTC le jour donné.

5 Précipitations totales tombées entre 06:00 UTC la jour donné et 06:00 UTC le lendemain.

Graphiques horaires